sensor_id;sensor_type;location;lat;lon;timestamp;pressure;altitude;pressure_sealevel;temperature;humidity
78839;BME280;68405;47.190;27.558;2023-06-22T00:00:16;100079.96;;;18.06;63.61
78839;BME280;68405;47.190;27.558;2023-06-22T00:03:04;100077.14;;;18.03;64.39
78839;BME280;68405;47.190;27.558;2023-06-22T00:05:33;100073.70;;;18.00;64.02
78839;BME280;68405;47.190;27.558;2023-06-22T00:08:04;100071.41;;;17.97;63.61
78839;BME280;68405;47.190;27.558;2023-06-22T00:10:33;100071.02;;;17.95;63.82
78839;BME280;68405;47.190;27.558;2023-06-22T00:13:02;100070.24;;;17.93;63.68
78839;BME280;68405;47.190;27.558;2023-06-22T00:15:31;100065.95;;;17.90;63.48
78839;BME280;68405;47.190;27.558;2023-06-22T00:18:00;100066.30;;;17.88;64.03
78839;BME280;68405;47.190;27.558;2023-06-22T00:20:30;100061.00;;;17.85;64.46
78839;BME280;68405;47.190;27.558;2023-06-22T00:23:01;100066.09;;;17.83;64.36
78839;BME280;68405;47.190;27.558;2023-06-22T00:25:30;100068.41;;;17.80;64.65
78839;BME280;68405;47.190;27.558;2023-06-22T00:27:59;100071.24;;;17.76;65.03
78839;BME280;68405;47.190;27.558;2023-06-22T00:30:28;100066.74;;;17.72;64.98
78839;BME280;68405;47.190;27.558;2023-06-22T00:32:56;100068.59;;;17.68;65.06
78839;BME280;68405;47.190;27.558;2023-06-22T00:35:27;100068.98;;;17.64;65.69
78839;BME280;68405;47.190;27.558;2023-06-22T00:37:57;100076.06;;;17.61;65.51
78839;BME280;68405;47.190;27.558;2023-06-22T00:40:29;100075.52;;;17.58;64.94
78839;BME280;68405;47.190;27.558;2023-06-22T00:42:58;100079.49;;;17.56;65.27
78839;BME280;68405;47.190;27.558;2023-06-22T00:45:27;100082.92;;;17.54;65.63
78839;BME280;68405;47.190;27.558;2023-06-22T00:47:57;100086.73;;;17.53;65.21
78839;BME280;68405;47.190;27.558;2023-06-22T00:50:27;100090.73;;;17.50;65.37
78839;BME280;68405;47.190;27.558;2023-06-22T00:53:03;100088.95;;;17.48;65.44
78839;BME280;68405;47.190;27.558;2023-06-22T00:55:41;100085.95;;;17.45;65.51
78839;BME280;68405;47.190;27.558;2023-06-22T00:58:12;100087.89;;;17.41;66.04
78839;BME280;68405;47.190;27.558;2023-06-22T01:00:41;100089.30;;;17.39;65.88
78839;BME280;68405;47.190;27.558;2023-06-22T01:03:10;100089.81;;;17.36;66.23
78839;BME280;68405;47.190;27.558;2023-06-22T01:05:40;100092.94;;;17.33;65.89
78839;BME280;68405;47.190;27.558;2023-06-22T01:08:19;100094.96;;;17.32;66.78
78839;BME280;68405;47.190;27.558;2023-06-22T01:10:55;100094.95;;;17.29;67.68
78839;BME280;68405;47.190;27.558;2023-06-22T01:13:32;100090.35;;;17.27;66.69
78839;BME280;68405;47.190;27.558;2023-06-22T01:16:05;100088.07;;;17.24;68.07
78839;BME280;68405;47.190;27.558;2023-06-22T01:18:37;100088.45;;;17.20;66.43
78839;BME280;68405;47.190;27.558;2023-06-22T01:21:14;100091.10;;;17.17;66.41
78839;BME280;68405;47.190;27.558;2023-06-22T01:23:56;100096.48;;;17.15;66.96
78839;BME280;68405;47.190;27.558;2023-06-22T01:26:37;100098.71;;;17.13;66.85
78839;BME280;68405;47.190;27.558;2023-06-22T01:29:09;100100.05;;;17.11;66.86
78839;BME280;68405;47.190;27.558;2023-06-22T01:31:42;100099.08;;;17.09;67.09
78839;BME280;68405;47.190;27.558;2023-06-22T01:34:13;100099.54;;;17.08;67.01
78839;BME280;68405;47.190;27.558;2023-06-22T01:36:43;100098.41;;;17.06;66.88
78839;BME280;68405;47.190;27.558;2023-06-22T01:39:13;100094.83;;;17.04;66.52
78839;BME280;68405;47.190;27.558;2023-06-22T01:41:43;100094.11;;;17.01;66.36
78839;BME280;68405;47.190;27.558;2023-06-22T01:44:13;100091.27;;;16.99;66.70
78839;BME280;68405;47.190;27.558;2023-06-22T01:46:42;100093.14;;;16.97;66.65
78839;BME280;68405;47.190;27.558;2023-06-22T01:49:12;100090.13;;;16.94;66.65
78839;BME280;68405;47.190;27.558;2023-06-22T01:51:41;100087.98;;;16.92;66.78
78839;BME280;68405;47.190;27.558;2023-06-22T01:54:10;100088.56;;;16.90;66.77
78839;BME280;68405;47.190;27.558;2023-06-22T01:56:39;100093.75;;;16.89;66.85
78839;BME280;68405;47.190;27.558;2023-06-22T01:59:14;100094.73;;;16.87;67.41
78839;BME280;68405;47.190;27.558;2023-06-22T02:01:47;100099.78;;;16.85;67.66
78839;BME280;68405;47.190;27.558;2023-06-22T02:04:21;100101.27;;;16.83;67.61
78839;BME280;68405;47.190;27.558;2023-06-22T02:06:54;100102.24;;;16.81;67.01
78839;BME280;68405;47.190;27.558;2023-06-22T02:09:24;100096.92;;;16.79;67.15
78839;BME280;68405;47.190;27.558;2023-06-22T02:11:57;100094.52;;;16.78;67.06
78839;BME280;68405;47.190;27.558;2023-06-22T02:14:27;100098.75;;;16.77;67.28
78839;BME280;68405;47.190;27.558;2023-06-22T02:16:56;100096.20;;;16.76;67.14
78839;BME280;68405;47.190;27.558;2023-06-22T02:19:27;100099.52;;;16.76;67.71
78839;BME280;68405;47.190;27.558;2023-06-22T02:22:01;100102.48;;;16.77;67.97
78839;BME280;68405;47.190;27.558;2023-06-22T02:24:31;100107.16;;;16.78;67.59
78839;BME280;68405;47.190;27.558;2023-06-22T02:27:01;100113.00;;;16.80;70.19
78839;BME280;68405;47.190;27.558;2023-06-22T02:29:30;100115.66;;;16.83;70.33
78839;BME280;68405;47.190;27.558;2023-06-22T02:32:00;100119.15;;;16.87;68.60
78839;BME280;68405;47.190;27.558;2023-06-22T02:34:28;100118.39;;;16.90;68.20
78839;BME280;68405;47.190;27.558;2023-06-22T02:36:57;100115.70;;;16.95;68.07
78839;BME280;68405;47.190;27.558;2023-06-22T02:39:29;100110.53;;;17.00;67.86
78839;BME280;68405;47.190;27.558;2023-06-22T02:41:58;100102.48;;;17.02;67.71
78839;BME280;68405;47.190;27.558;2023-06-22T02:44:26;100100.70;;;17.05;67.73
78839;BME280;68405;47.190;27.558;2023-06-22T02:46:56;100102.08;;;17.09;68.03
78839;BME280;68405;47.190;27.558;2023-06-22T02:49:25;100099.34;;;17.14;68.42
78839;BME280;68405;47.190;27.558;2023-06-22T02:51:54;100102.88;;;17.19;68.40
78839;BME280;68405;47.190;27.558;2023-06-22T02:54:23;100100.47;;;17.25;68.43
78839;BME280;68405;47.190;27.558;2023-06-22T02:56:52;100096.14;;;17.30;68.72
78839;BME280;68405;47.190;27.558;2023-06-22T02:59:21;100091.83;;;17.35;68.49
78839;BME280;68405;47.190;27.558;2023-06-22T03:01:51;100090.52;;;17.41;68.37
78839;BME280;68405;47.190;27.558;2023-06-22T03:04:20;100086.13;;;17.48;68.20
78839;BME280;68405;47.190;27.558;2023-06-22T03:06:49;100079.34;;;17.55;68.20
78839;BME280;68405;47.190;27.558;2023-06-22T03:09:19;100078.73;;;17.63;68.11
78839;BME280;68405;47.190;27.558;2023-06-22T03:11:48;100078.30;;;17.70;68.09
78839;BME280;68405;47.190;27.558;2023-06-22T03:14:16;100075.20;;;17.78;68.09
78839;BME280;68405;47.190;27.558;2023-06-22T03:16:45;100075.48;;;17.84;68.20
78839;BME280;68405;47.190;27.558;2023-06-22T03:19:15;100075.14;;;17.89;68.55
78839;BME280;68405;47.190;27.558;2023-06-22T03:21:44;100077.75;;;17.96;68.02
78839;BME280;68405;47.190;27.558;2023-06-22T03:24:13;100080.84;;;18.03;68.28
78839;BME280;68405;47.190;27.558;2023-06-22T03:26:42;100084.52;;;18.12;68.11
78839;BME280;68405;47.190;27.558;2023-06-22T03:29:15;100087.85;;;18.20;68.43
78839;BME280;68405;47.190;27.558;2023-06-22T03:31:44;100088.64;;;18.30;68.06
78839;BME280;68405;47.190;27.558;2023-06-22T03:34:13;100089.58;;;18.41;67.83
78839;BME280;68405;47.190;27.558;2023-06-22T03:36:42;100085.28;;;18.50;67.79
78839;BME280;68405;47.190;27.558;2023-06-22T03:39:13;100088.08;;;18.61;67.70
78839;BME280;68405;47.190;27.558;2023-06-22T03:41:42;100088.66;;;18.71;67.35
78839;BME280;68405;47.190;27.558;2023-06-22T03:44:11;100092.02;;;18.82;67.07
78839;BME280;68405;47.190;27.558;2023-06-22T03:46:40;100095.49;;;18.97;67.08
78839;BME280;68405;47.190;27.558;2023-06-22T03:49:09;100097.53;;;19.11;66.71
78839;BME280;68405;47.190;27.558;2023-06-22T03:51:38;100099.70;;;19.31;66.44
78839;BME280;68405;47.190;27.558;2023-06-22T03:54:07;100103.69;;;19.59;66.14
78839;BME280;68405;47.190;27.558;2023-06-22T03:56:36;100108.18;;;20.19;65.25
78839;BME280;68405;47.190;27.558;2023-06-22T03:59:06;100114.39;;;21.20;63.76
78839;BME280;68405;47.190;27.558;2023-06-22T04:01:37;100106.40;;;22.92;60.79
78839;BME280;68405;47.190;27.558;2023-06-22T04:04:07;100112.23;;;24.91;56.83
78839;BME280;68405;47.190;27.558;2023-06-22T04:06:36;100115.09;;;26.68;54.07
78839;BME280;68405;47.190;27.558;2023-06-22T04:09:06;100116.59;;;28.37;50.28
78839;BME280;68405;47.190;27.558;2023-06-22T04:11:35;100113.54;;;29.92;46.54
78839;BME280;68405;47.190;27.558;2023-06-22T04:14:04;100115.77;;;31.36;46.05
78839;BME280;68405;47.190;27.558;2023-06-22T04:16:34;100113.82;;;32.67;43.33
78839;BME280;68405;47.190;27.558;2023-06-22T04:19:03;100111.86;;;33.89;42.41
78839;BME280;68405;47.190;27.558;2023-06-22T04:21:32;100110.92;;;34.97;39.23
78839;BME280;68405;47.190;27.558;2023-06-22T04:24:01;100109.18;;;35.88;37.88
78839;BME280;68405;47.190;27.558;2023-06-22T04:26:30;100118.07;;;36.68;36.96
78839;BME280;68405;47.190;27.558;2023-06-22T04:29:05;100132.67;;;37.43;35.31
78839;BME280;68405;47.190;27.558;2023-06-22T04:31:36;100139.35;;;38.08;32.94
78839;BME280;68405;47.190;27.558;2023-06-22T04:34:07;100146.09;;;38.62;31.55
78839;BME280;68405;47.190;27.558;2023-06-22T04:36:37;100144.17;;;38.95;30.52
78839;BME280;68405;47.190;27.558;2023-06-22T04:39:07;100135.44;;;39.39;30.61
78839;BME280;68405;47.190;27.558;2023-06-22T04:41:37;100133.09;;;39.95;30.10
78839;BME280;68405;47.190;27.558;2023-06-22T04:44:13;100134.05;;;40.72;28.92
78839;BME280;68405;47.190;27.558;2023-06-22T04:46:54;100142.80;;;41.44;28.17
78839;BME280;68405;47.190;27.558;2023-06-22T04:49:29;100138.42;;;42.03;26.88
78839;BME280;68405;47.190;27.558;2023-06-22T04:52:08;100134.20;;;42.64;26.65
78839;BME280;68405;47.190;27.558;2023-06-22T04:54:39;100137.70;;;43.26;26.82
78839;BME280;68405;47.190;27.558;2023-06-22T04:57:15;100138.42;;;43.75;24.21
78839;BME280;68405;47.190;27.558;2023-06-22T04:59:44;100138.50;;;43.90;21.97
78839;BME280;68405;47.190;27.558;2023-06-22T05:02:14;100139.81;;;44.01;22.24
78839;BME280;68405;47.190;27.558;2023-06-22T05:04:43;100140.36;;;44.23;21.56
78839;BME280;68405;47.190;27.558;2023-06-22T05:07:12;100143.34;;;44.76;22.22
78839;BME280;68405;47.190;27.558;2023-06-22T05:09:41;100141.91;;;44.97;19.59
78839;BME280;68405;47.190;27.558;2023-06-22T05:12:11;100140.48;;;45.07;20.29
78839;BME280;68405;47.190;27.558;2023-06-22T05:14:40;100138.79;;;45.29;20.16
78839;BME280;68405;47.190;27.558;2023-06-22T05:17:09;100133.81;;;45.10;18.25
78839;BME280;68405;47.190;27.558;2023-06-22T05:19:42;100130.98;;;44.81;18.17
78839;BME280;68405;47.190;27.558;2023-06-22T05:22:16;100130.11;;;44.83;18.79
78839;BME280;68405;47.190;27.558;2023-06-22T05:24:46;100134.60;;;45.32;19.79
78839;BME280;68405;47.190;27.558;2023-06-22T05:27:15;100137.16;;;46.12;19.55
78839;BME280;68405;47.190;27.558;2023-06-22T05:29:44;100142.51;;;46.63;17.23
78839;BME280;68405;47.190;27.558;2023-06-22T05:32:13;100145.23;;;46.47;16.47
78839;BME280;68405;47.190;27.558;2023-06-22T05:34:43;100149.82;;;46.85;17.52
78839;BME280;68405;47.190;27.558;2023-06-22T05:37:12;100151.29;;;47.40;16.85
78839;BME280;68405;47.190;27.558;2023-06-22T05:39:41;100153.08;;;47.83;16.66
78839;BME280;68405;47.190;27.558;2023-06-22T05:42:10;100152.55;;;48.08;16.92
78839;BME280;68405;47.190;27.558;2023-06-22T05:44:39;100158.89;;;48.25;16.10
78839;BME280;68405;47.190;27.558;2023-06-22T05:47:08;100161.33;;;48.47;15.54
78839;BME280;68405;47.190;27.558;2023-06-22T05:49:37;100160.92;;;48.85;15.38
78839;BME280;68405;47.190;27.558;2023-06-22T05:52:07;100159.50;;;49.10;15.57
78839;BME280;68405;47.190;27.558;2023-06-22T05:54:36;100161.12;;;49.45;15.05
78839;BME280;68405;47.190;27.558;2023-06-22T05:57:06;100161.56;;;49.62;14.35
78839;BME280;68405;47.190;27.558;2023-06-22T05:59:35;100162.25;;;49.61;13.46
78839;BME280;68405;47.190;27.558;2023-06-22T06:02:05;100153.67;;;49.63;13.50
78839;BME280;68405;47.190;27.558;2023-06-22T06:04:34;100153.41;;;49.96;14.19
78839;BME280;68405;47.190;27.558;2023-06-22T06:07:04;100150.91;;;50.54;14.44
78839;BME280;68405;47.190;27.558;2023-06-22T06:09:33;100149.35;;;51.00;13.81
78839;BME280;68405;47.190;27.558;2023-06-22T06:12:02;100145.97;;;51.21;13.14
78839;BME280;68405;47.190;27.558;2023-06-22T06:14:31;100146.45;;;51.38;12.77
78839;BME280;68405;47.190;27.558;2023-06-22T06:17:00;100152.09;;;51.69;13.02
78839;BME280;68405;47.190;27.558;2023-06-22T06:19:29;100148.98;;;52.20;12.75
78839;BME280;68405;47.190;27.558;2023-06-22T06:21:58;100147.84;;;52.44;11.66
78839;BME280;68405;47.190;27.558;2023-06-22T06:24:28;100146.81;;;52.46;11.38
78839;BME280;68405;47.190;27.558;2023-06-22T06:26:57;100151.23;;;52.42;11.23
78839;BME280;68405;47.190;27.558;2023-06-22T06:29:26;100154.02;;;52.44;11.70
78839;BME280;68405;47.190;27.558;2023-06-22T06:31:55;100155.96;;;52.76;11.56
78839;BME280;68405;47.190;27.558;2023-06-22T06:34:25;100157.98;;;53.04;11.48
78839;BME280;68405;47.190;27.558;2023-06-22T06:36:53;100157.66;;;53.10;11.03
78839;BME280;68405;47.190;27.558;2023-06-22T06:39:23;100158.63;;;53.08;10.85
78839;BME280;68405;47.190;27.558;2023-06-22T06:41:52;100157.61;;;53.36;10.76
78839;BME280;68405;47.190;27.558;2023-06-22T06:44:21;100155.09;;;53.49;10.36
78839;BME280;68405;47.190;27.558;2023-06-22T06:46:51;100153.85;;;53.39;10.32
78839;BME280;68405;47.190;27.558;2023-06-22T06:49:20;100153.34;;;53.19;10.65
78839;BME280;68405;47.190;27.558;2023-06-22T06:51:49;100155.52;;;53.34;10.40
78839;BME280;68405;47.190;27.558;2023-06-22T06:54:19;100154.97;;;53.60;10.27
78839;BME280;68405;47.190;27.558;2023-06-22T06:56:49;100150.58;;;53.81;10.18
78839;BME280;68405;47.190;27.558;2023-06-22T06:59:18;100152.99;;;53.99;9.86
78839;BME280;68405;47.190;27.558;2023-06-22T07:01:47;100150.90;;;54.11;10.01
78839;BME280;68405;47.190;27.558;2023-06-22T07:04:16;100153.08;;;54.21;9.17
78839;BME280;68405;47.190;27.558;2023-06-22T07:06:46;100159.16;;;54.06;9.30
78839;BME280;68405;47.190;27.558;2023-06-22T07:09:15;100157.27;;;54.28;9.53
78839;BME280;68405;47.190;27.558;2023-06-22T07:11:46;100159.81;;;54.72;8.98
78839;BME280;68405;47.190;27.558;2023-06-22T07:14:15;100157.77;;;54.76;8.93
78839;BME280;68405;47.190;27.558;2023-06-22T07:16:44;100148.61;;;54.58;8.62
78839;BME280;68405;47.190;27.558;2023-06-22T07:19:14;100150.52;;;54.54;8.51
78839;BME280;68405;47.190;27.558;2023-06-22T07:21:42;100152.92;;;54.60;8.64
78839;BME280;68405;47.190;27.558;2023-06-22T07:24:11;100151.77;;;54.37;8.71
78839;BME280;68405;47.190;27.558;2023-06-22T07:26:40;100149.98;;;54.34;9.04
78839;BME280;68405;47.190;27.558;2023-06-22T07:29:14;100149.12;;;54.39;8.78
78839;BME280;68405;47.190;27.558;2023-06-22T07:31:43;100148.09;;;54.54;8.90
78839;BME280;68405;47.190;27.558;2023-06-22T07:34:12;100149.68;;;54.86;8.80
78839;BME280;68405;47.190;27.558;2023-06-22T07:36:42;100148.67;;;55.13;8.45
78839;BME280;68405;47.190;27.558;2023-06-22T07:39:11;100146.18;;;55.25;8.33
78839;BME280;68405;47.190;27.558;2023-06-22T07:41:42;100145.51;;;55.27;8.48
78839;BME280;68405;47.190;27.558;2023-06-22T07:44:11;100142.27;;;55.10;8.34
78839;BME280;68405;47.190;27.558;2023-06-22T07:46:40;100137.80;;;55.06;8.31
78839;BME280;68405;47.190;27.558;2023-06-22T07:49:09;100139.85;;;54.86;7.82
78839;BME280;68405;47.190;27.558;2023-06-22T07:51:38;100143.30;;;54.39;7.98
78839;BME280;68405;47.190;27.558;2023-06-22T07:54:07;100138.59;;;54.12;8.38
78839;BME280;68405;47.190;27.558;2023-06-22T07:56:37;100134.21;;;54.25;8.16
78839;BME280;68405;47.190;27.558;2023-06-22T07:59:06;100134.39;;;54.28;8.30
78839;BME280;68405;47.190;27.558;2023-06-22T08:01:35;100137.91;;;54.00;8.15
78839;BME280;68405;47.190;27.558;2023-06-22T08:04:04;100136.17;;;53.77;7.71
78839;BME280;68405;47.190;27.558;2023-06-22T08:06:33;100137.34;;;53.75;7.75
78839;BME280;68405;47.190;27.558;2023-06-22T08:09:03;100132.42;;;53.78;7.98
78839;BME280;68405;47.190;27.558;2023-06-22T08:11:31;100132.44;;;53.41;8.17
78839;BME280;68405;47.190;27.558;2023-06-22T08:14:00;100133.39;;;53.02;8.66
78839;BME280;68405;47.190;27.558;2023-06-22T08:16:30;100132.30;;;52.39;8.41
78839;BME280;68405;47.190;27.558;2023-06-22T08:18:58;100132.27;;;51.58;9.12
78839;BME280;68405;47.190;27.558;2023-06-22T08:21:27;100129.47;;;51.20;9.64
78839;BME280;68405;47.190;27.558;2023-06-22T08:23:57;100131.02;;;51.01;9.49
78839;BME280;68405;47.190;27.558;2023-06-22T08:26:25;100131.52;;;50.31;9.70
78839;BME280;68405;47.190;27.558;2023-06-22T08:28:54;100130.16;;;49.95;9.99
78839;BME280;68405;47.190;27.558;2023-06-22T08:31:23;100128.60;;;49.91;10.39
78839;BME280;68405;47.190;27.558;2023-06-22T08:33:53;100131.31;;;50.20;10.34
78839;BME280;68405;47.190;27.558;2023-06-22T08:36:22;100125.04;;;50.02;10.22
78839;BME280;68405;47.190;27.558;2023-06-22T08:38:51;100118.16;;;49.79;10.58
78839;BME280;68405;47.190;27.558;2023-06-22T08:41:21;100116.09;;;49.67;10.50
78839;BME280;68405;47.190;27.558;2023-06-22T08:43:50;100113.30;;;49.21;10.69
78839;BME280;68405;47.190;27.558;2023-06-22T08:46:19;100113.55;;;49.17;10.69
78839;BME280;68405;47.190;27.558;2023-06-22T08:48:54;100115.54;;;49.34;10.52
78839;BME280;68405;47.190;27.558;2023-06-22T08:51:23;100113.13;;;49.74;10.59
78839;BME280;68405;47.190;27.558;2023-06-22T08:53:52;100118.98;;;50.13;10.69
78839;BME280;68405;47.190;27.558;2023-06-22T08:56:21;100119.40;;;49.83;10.18
78839;BME280;68405;47.190;27.558;2023-06-22T08:58:50;100118.25;;;48.92;10.57
78839;BME280;68405;47.190;27.558;2023-06-22T09:01:19;100115.43;;;48.25;11.09
78839;BME280;68405;47.190;27.558;2023-06-22T09:03:48;100116.00;;;47.64;11.30
78839;BME280;68405;47.190;27.558;2023-06-22T09:06:22;100117.88;;;47.55;11.41
78839;BME280;68405;47.190;27.558;2023-06-22T09:08:51;100119.42;;;47.36;11.75
78839;BME280;68405;47.190;27.558;2023-06-22T09:11:20;100124.70;;;47.37;11.89
78839;BME280;68405;47.190;27.558;2023-06-22T09:13:50;100123.58;;;46.31;12.59
78839;BME280;68405;47.190;27.558;2023-06-22T09:16:20;100119.75;;;44.55;13.31
78839;BME280;68405;47.190;27.558;2023-06-22T09:18:49;100117.68;;;43.29;14.33
78839;BME280;68405;47.190;27.558;2023-06-22T09:21:18;100116.80;;;42.28;15.10
78839;BME280;68405;47.190;27.558;2023-06-22T09:23:47;100112.60;;;41.44;15.32
78839;BME280;68405;47.190;27.558;2023-06-22T09:26:19;100111.67;;;41.39;15.77
78839;BME280;68405;47.190;27.558;2023-06-22T09:28:48;100113.27;;;41.29;16.02
78839;BME280;68405;47.190;27.558;2023-06-22T09:31:19;100113.98;;;41.04;16.10
78839;BME280;68405;47.190;27.558;2023-06-22T09:33:54;100110.33;;;41.09;16.28
78839;BME280;68405;47.190;27.558;2023-06-22T09:36:23;100107.73;;;41.18;16.69
78839;BME280;68405;47.190;27.558;2023-06-22T09:38:52;100104.56;;;41.96;16.68
78839;BME280;68405;47.190;27.558;2023-06-22T09:41:23;100106.41;;;43.00;16.32
78839;BME280;68405;47.190;27.558;2023-06-22T09:43:53;100105.60;;;43.92;15.47
78839;BME280;68405;47.190;27.558;2023-06-22T09:46:22;100103.42;;;44.52;15.00
78839;BME280;68405;47.190;27.558;2023-06-22T09:48:53;100100.52;;;44.45;14.84
78839;BME280;68405;47.190;27.558;2023-06-22T09:51:23;100098.76;;;44.43;14.95
78839;BME280;68405;47.190;27.558;2023-06-22T09:53:52;100096.28;;;44.51;14.70
78839;BME280;68405;47.190;27.558;2023-06-22T09:56:22;100096.56;;;44.75;14.66
78839;BME280;68405;47.190;27.558;2023-06-22T09:58:52;100099.19;;;44.97;14.63
78839;BME280;68405;47.190;27.558;2023-06-22T10:01:21;100098.84;;;45.12;14.73
78839;BME280;68405;47.190;27.558;2023-06-22T10:03:51;100101.11;;;45.50;14.62
78839;BME280;68405;47.190;27.558;2023-06-22T10:06:22;100098.63;;;45.88;14.45
78839;BME280;68405;47.190;27.558;2023-06-22T10:08:53;100095.29;;;46.06;13.68
78839;BME280;68405;47.190;27.558;2023-06-22T10:11:21;100091.80;;;46.26;13.96
78839;BME280;68405;47.190;27.558;2023-06-22T10:13:55;100090.18;;;46.03;13.25
78839;BME280;68405;47.190;27.558;2023-06-22T10:16:31;100089.89;;;46.21;13.50
78839;BME280;68405;47.190;27.558;2023-06-22T10:19:00;100089.76;;;46.35;13.34
78839;BME280;68405;47.190;27.558;2023-06-22T10:21:30;100091.10;;;45.95;13.30
78839;BME280;68405;47.190;27.558;2023-06-22T10:24:00;100086.82;;;45.41;13.51
78839;BME280;68405;47.190;27.558;2023-06-22T10:26:35;100085.23;;;45.19;13.63
78839;BME280;68405;47.190;27.558;2023-06-22T10:29:04;100085.36;;;45.09;13.58
78839;BME280;68405;47.190;27.558;2023-06-22T10:31:33;100083.73;;;45.01;13.68
78839;BME280;68405;47.190;27.558;2023-06-22T10:34:02;100082.77;;;45.19;13.74
78839;BME280;68405;47.190;27.558;2023-06-22T10:36:31;100076.65;;;45.21;13.75
78839;BME280;68405;47.190;27.558;2023-06-22T10:39:00;100075.08;;;45.31;13.97
78839;BME280;68405;47.190;27.558;2023-06-22T10:41:31;100071.27;;;45.61;13.82
78839;BME280;68405;47.190;27.558;2023-06-22T10:44:00;100071.42;;;45.75;13.80
78839;BME280;68405;47.190;27.558;2023-06-22T10:46:29;100068.20;;;44.99;14.21
78839;BME280;68405;47.190;27.558;2023-06-22T10:48:58;100062.66;;;44.74;14.14
78839;BME280;68405;47.190;27.558;2023-06-22T10:51:27;100060.86;;;45.20;13.97
78839;BME280;68405;47.190;27.558;2023-06-22T10:53:57;100059.62;;;45.70;13.97
78839;BME280;68405;47.190;27.558;2023-06-22T10:56:26;100055.81;;;45.72;14.21
78839;BME280;68405;47.190;27.558;2023-06-22T10:58:55;100053.38;;;45.93;14.47
78839;BME280;68405;47.190;27.558;2023-06-22T11:01:24;100048.75;;;46.11;14.20
78839;BME280;68405;47.190;27.558;2023-06-22T11:03:53;100048.42;;;46.39;14.15
78839;BME280;68405;47.190;27.558;2023-06-22T11:06:22;100052.07;;;46.16;13.84
78839;BME280;68405;47.190;27.558;2023-06-22T11:08:51;100053.56;;;45.59;14.27
78839;BME280;68405;47.190;27.558;2023-06-22T11:11:20;100050.52;;;45.57;13.97
78839;BME280;68405;47.190;27.558;2023-06-22T11:13:49;100046.14;;;45.00;14.52
78839;BME280;68405;47.190;27.558;2023-06-22T11:16:19;100042.25;;;44.56;14.59
78839;BME280;68405;47.190;27.558;2023-06-22T11:18:48;100040.19;;;44.06;15.03
78839;BME280;68405;47.190;27.558;2023-06-22T11:21:17;100033.19;;;43.72;15.22
78839;BME280;68405;47.190;27.558;2023-06-22T11:23:46;100032.64;;;43.31;15.40
78839;BME280;68405;47.190;27.558;2023-06-22T11:26:15;100026.86;;;43.54;15.66
78839;BME280;68405;47.190;27.558;2023-06-22T11:28:44;100025.94;;;43.39;15.68
78839;BME280;68405;47.190;27.558;2023-06-22T11:31:13;100024.52;;;43.28;15.83
78839;BME280;68405;47.190;27.558;2023-06-22T11:33:42;100024.22;;;43.16;15.54
78839;BME280;68405;47.190;27.558;2023-06-22T11:36:13;100019.04;;;43.18;15.60
78839;BME280;68405;47.190;27.558;2023-06-22T11:38:43;100019.50;;;43.49;15.69
78839;BME280;68405;47.190;27.558;2023-06-22T11:41:12;100010.00;;;43.88;15.58
78839;BME280;68405;47.190;27.558;2023-06-22T11:43:42;100014.98;;;44.00;15.31
78839;BME280;68405;47.190;27.558;2023-06-22T11:46:11;100012.36;;;43.63;15.28
78839;BME280;68405;47.190;27.558;2023-06-22T11:48:40;100011.92;;;43.27;15.73
78839;BME280;68405;47.190;27.558;2023-06-22T11:51:09;100012.48;;;42.93;16.02
78839;BME280;68405;47.190;27.558;2023-06-22T11:53:38;100006.11;;;42.93;16.09
78839;BME280;68405;47.190;27.558;2023-06-22T11:56:07;100001.62;;;43.22;16.32
78839;BME280;68405;47.190;27.558;2023-06-22T11:58:36;99996.11;;;42.97;16.21
78839;BME280;68405;47.190;27.558;2023-06-22T12:01:05;99993.64;;;42.88;16.55
78839;BME280;68405;47.190;27.558;2023-06-22T12:03:34;99993.29;;;42.94;16.46
78839;BME280;68405;47.190;27.558;2023-06-22T12:06:03;99991.80;;;43.05;16.12
78839;BME280;68405;47.190;27.558;2023-06-22T12:08:32;99988.84;;;42.92;16.00
78839;BME280;68405;47.190;27.558;2023-06-22T12:11:01;99986.45;;;42.55;16.42
78839;BME280;68405;47.190;27.558;2023-06-22T12:13:30;99987.00;;;41.53;16.84
78839;BME280;68405;47.190;27.558;2023-06-22T12:15:59;99984.05;;;40.66;17.66
78839;BME280;68405;47.190;27.558;2023-06-22T12:18:28;99979.20;;;40.70;17.68
78839;BME280;68405;47.190;27.558;2023-06-22T12:20:57;99976.81;;;41.18;17.70
78839;BME280;68405;47.190;27.558;2023-06-22T12:23:26;99975.12;;;41.29;17.85
78839;BME280;68405;47.190;27.558;2023-06-22T12:25:55;99975.70;;;41.43;17.70
78839;BME280;68405;47.190;27.558;2023-06-22T12:28:24;99976.30;;;41.74;17.63
78839;BME280;68405;47.190;27.558;2023-06-22T12:30:53;99971.30;;;41.23;17.86
78839;BME280;68405;47.190;27.558;2023-06-22T12:33:22;99969.09;;;40.39;18.61
78839;BME280;68405;47.190;27.558;2023-06-22T12:35:51;99971.06;;;40.18;18.77
78839;BME280;68405;47.190;27.558;2023-06-22T12:38:20;99969.08;;;40.15;18.81
78839;BME280;68405;47.190;27.558;2023-06-22T12:40:49;99962.77;;;39.91;18.68
78839;BME280;68405;47.190;27.558;2023-06-22T12:43:18;99964.67;;;39.76;18.69
78839;BME280;68405;47.190;27.558;2023-06-22T12:45:47;99963.80;;;39.62;18.97
78839;BME280;68405;47.190;27.558;2023-06-22T12:48:16;99957.59;;;39.38;19.09
78839;BME280;68405;47.190;27.558;2023-06-22T12:50:45;99959.39;;;39.32;19.52
78839;BME280;68405;47.190;27.558;2023-06-22T12:53:16;99959.03;;;39.22;19.45
78839;BME280;68405;47.190;27.558;2023-06-22T12:55:45;99958.83;;;39.13;19.62